createdAt,value
2024-03-08T00:04:28.805Z,16
2024-03-08T00:09:29.029Z,16
2024-03-08T00:14:39.266Z,16
2024-03-08T00:25:28.893Z,16
2024-03-08T00:30:39.039Z,16
2024-03-08T00:35:39.142Z,16
2024-03-08T00:40:39.239Z,16
2024-03-08T00:46:28.714Z,17
2024-03-08T00:51:28.930Z,16
2024-03-08T00:56:39.262Z,16
2024-03-08T01:01:39.240Z,17
2024-03-08T01:07:28.989Z,17
2024-03-08T01:12:39.300Z,16
2024-03-08T01:18:28.996Z,17
2024-03-08T01:23:28.989Z,17
2024-03-08T01:28:39.205Z,17
2024-03-08T01:34:28.753Z,17
2024-03-08T01:39:39.250Z,17
2024-03-08T01:44:39.301Z,17
2024-03-08T01:50:28.765Z,17
2024-03-08T01:55:28.750Z,17
2024-03-08T02:00:28.765Z,18
2024-03-08T02:05:28.828Z,17
2024-03-08T02:10:38.984Z,18
2024-03-08T02:15:39.035Z,18
2024-03-08T02:20:39.113Z,17
2024-03-08T02:26:28.765Z,17
2024-03-08T02:31:39.026Z,17
2024-03-08T02:36:43.217Z,18
2024-03-08T02:42:28.718Z,17
2024-03-08T02:47:28.919Z,17
2024-03-08T02:52:39.030Z,17
2024-03-08T02:57:39.077Z,17
2024-03-08T03:03:28.983Z,17
2024-03-08T03:08:39.092Z,17
2024-03-08T03:13:39.220Z,17
2024-03-08T03:19:28.937Z,18
2024-03-08T03:24:39.205Z,17
2024-03-08T03:30:28.910Z,17
2024-03-08T03:35:28.970Z,17
2024-03-08T03:40:39.223Z,17
2024-03-08T03:45:39.207Z,17
2024-03-08T03:51:28.937Z,17
2024-03-08T03:56:39.162Z,17
2024-03-08T04:02:28.936Z,17
2024-03-08T04:07:28.979Z,16
2024-03-08T04:12:39.269Z,17
2024-03-08T04:18:28.745Z,18
2024-03-08T04:23:28.953Z,18
2024-03-08T04:28:39.264Z,18
2024-03-08T04:34:28.912Z,18
2024-03-08T04:39:39.222Z,17
2024-03-08T04:45:28.728Z,17
2024-03-08T04:50:28.845Z,18
2024-03-08T04:55:28.889Z,18
2024-03-08T05:00:39.021Z,18
2024-03-08T05:05:39.022Z,17
2024-03-08T05:10:38.989Z,18
2024-03-08T05:15:39.240Z,18
2024-03-08T05:21:28.775Z,18
2024-03-08T05:26:28.974Z,18
2024-03-08T05:31:39.017Z,18
2024-03-08T05:36:39.195Z,17
2024-03-08T05:42:28.939Z,19
2024-03-08T05:47:39.406Z,19
2024-03-08T05:52:39.312Z,18
2024-03-08T05:58:28.892Z,18
2024-03-08T06:03:39.057Z,18
2024-03-08T06:09:28.900Z,19
2024-03-08T06:14:28.921Z,18
2024-03-08T06:19:39.364Z,18
2024-03-08T06:25:28.725Z,19
2024-03-08T06:30:28.885Z,18
2024-03-08T06:35:28.895Z,19
2024-03-08T06:40:28.915Z,19
2024-03-08T06:45:39.189Z,18
2024-03-08T06:51:28.866Z,18
2024-03-08T06:56:28.888Z,18
2024-03-08T07:01:39.280Z,17
2024-03-08T07:07:28.879Z,18
2024-03-08T07:12:38.943Z,17
2024-03-08T07:17:39.246Z,18
2024-03-08T07:22:39.210Z,17
2024-03-08T07:28:28.882Z,18
2024-03-08T07:33:39.077Z,17
2024-03-08T07:38:39.141Z,17
2024-03-08T07:43:39.178Z,17
2024-03-08T07:49:28.970Z,18
2024-03-08T07:54:38.968Z,17
2024-03-08T07:59:39.234Z,16
2024-03-08T08:05:28.690Z,17
2024-03-08T08:10:39.053Z,17
2024-03-08T08:15:38.999Z,17
2024-03-08T08:21:28.682Z,16
2024-03-08T08:26:40.925Z,17
2024-03-08T08:32:28.745Z,16
2024-03-08T08:37:28.739Z,16
2024-03-08T08:42:39.146Z,17
2024-03-08T08:47:39.202Z,17
2024-03-08T08:53:28.757Z,16
2024-03-08T08:58:38.988Z,15
2024-03-08T09:04:28.776Z,16
2024-03-08T09:09:28.850Z,15
2024-03-08T09:14:28.850Z,15
2024-03-08T09:19:28.914Z,15
2024-03-08T09:24:39.141Z,15
2024-03-08T09:29:39.137Z,15
2024-03-08T09:34:39.294Z,15
2024-03-08T09:39:39.414Z,15
2024-03-08T09:45:28.871Z,13
2024-03-08T09:50:28.862Z,14
2024-03-08T09:55:28.923Z,13
2024-03-08T10:00:39.144Z,13
2024-03-08T10:05:39.187Z,13
2024-03-08T10:10:39.425Z,12
2024-03-08T10:16:28.894Z,12
2024-03-08T10:21:28.871Z,12
2024-03-08T10:26:28.925Z,11
2024-03-08T10:31:39.035Z,11
2024-03-08T10:36:39.180Z,13
2024-03-08T10:42:28.886Z,12
2024-03-08T10:47:39.159Z,11
2024-03-08T10:53:28.837Z,11
2024-03-08T10:58:28.911Z,11
2024-03-08T11:03:39.129Z,11
2024-03-08T11:08:39.141Z,11
2024-03-08T11:14:28.840Z,10
2024-03-08T11:19:39.154Z,10
2024-03-08T11:25:28.869Z,9
2024-03-08T11:30:39.124Z,9
2024-03-08T11:35:39.160Z,9
2024-03-08T11:40:39.243Z,10
2024-03-08T11:46:28.882Z,9
2024-03-08T11:51:39.119Z,9
2024-03-08T11:56:39.158Z,9
2024-03-08T12:02:28.953Z,9
2024-03-08T12:07:29.129Z,10
2024-03-08T12:12:39.173Z,10
2024-03-08T12:17:39.284Z,9
2024-03-08T12:23:28.669Z,9
2024-03-08T12:28:28.948Z,10
2024-03-08T12:33:39.165Z,11
2024-03-08T12:39:29.343Z,10
2024-03-08T12:44:39.146Z,10
2024-03-08T12:50:28.862Z,11
2024-03-08T12:55:38.974Z,10
2024-03-08T13:01:28.922Z,10
2024-03-08T13:06:39.220Z,11
2024-03-08T13:11:39.349Z,11
2024-03-08T13:17:28.672Z,12
2024-03-08T13:22:28.928Z,11
2024-03-08T13:27:39.104Z,11
2024-03-08T13:33:28.838Z,11
2024-03-08T13:38:28.830Z,12
2024-03-08T13:43:39.161Z,12
2024-03-08T13:48:39.143Z,12
2024-03-08T13:53:39.155Z,11
2024-03-08T13:59:28.705Z,12
2024-03-08T14:04:38.951Z,12
2024-03-08T14:09:38.993Z,11
2024-03-08T14:15:28.657Z,11
2024-03-08T14:20:28.638Z,10
2024-03-08T14:25:28.702Z,10
2024-03-08T14:30:39.308Z,10
2024-03-08T14:35:38.996Z,10
2024-03-08T14:41:28.620Z,11
2024-03-08T14:46:38.918Z,10
2024-03-08T14:51:38.934Z,10
2024-03-08T14:57:28.723Z,9
2024-03-08T15:02:38.898Z,8
2024-03-08T15:07:38.949Z,9
2024-03-08T15:12:38.964Z,9
2024-03-08T15:17:39.060Z,9
2024-03-08T15:22:39.189Z,9
2024-03-08T15:28:28.688Z,10
2024-03-08T15:33:39.129Z,8
2024-03-08T15:39:28.858Z,9
2024-03-08T15:44:28.854Z,8
2024-03-08T15:54:39.148Z,8
2024-03-08T16:00:28.855Z,8
2024-03-08T16:05:28.884Z,8
2024-03-08T16:10:41.007Z,8
2024-03-08T16:15:39.141Z,8
2024-03-08T16:21:31.013Z,9
2024-03-08T16:26:39.181Z,8
2024-03-08T16:32:28.842Z,9
2024-03-08T16:37:39.195Z,9
2024-03-08T16:43:28.964Z,9
2024-03-08T16:48:39.232Z,9
2024-03-08T16:53:39.150Z,10
2024-03-08T16:59:28.866Z,9
2024-03-08T17:04:39.131Z,10
2024-03-08T17:10:28.917Z,10
2024-03-08T17:15:39.163Z,10
2024-03-08T17:21:28.718Z,11
2024-03-08T17:26:39.154Z,11
2024-03-08T17:32:28.659Z,11
2024-03-08T17:37:28.941Z,11
2024-03-08T17:42:39.061Z,11
2024-03-08T17:47:39.193Z,11
2024-03-08T17:53:28.614Z,12
2024-03-08T17:58:28.819Z,11
2024-03-08T18:03:39.264Z,12
2024-03-08T18:09:28.825Z,12
2024-03-08T18:14:39.133Z,12
2024-03-08T18:20:28.612Z,12
2024-03-08T18:25:29.039Z,13
2024-03-08T18:30:39.299Z,12
2024-03-08T18:36:28.816Z,12
2024-03-08T18:41:28.923Z,12
2024-03-08T18:46:39.054Z,12
2024-03-08T18:52:31.018Z,12
2024-03-08T18:57:28.854Z,12
2024-03-08T19:02:39.058Z,12
2024-03-08T19:07:39.206Z,12
2024-03-08T19:12:39.285Z,13
2024-03-08T19:18:33.146Z,12
2024-03-08T19:23:39.192Z,12
2024-03-08T19:29:28.879Z,12
2024-03-08T19:34:39.131Z,12
2024-03-08T19:39:39.196Z,12
2024-03-08T19:45:28.914Z,13
2024-03-08T19:50:48.264Z,12
2024-03-08T19:56:28.649Z,12
2024-03-08T20:01:29.060Z,12
2024-03-08T20:06:39.192Z,12
2024-03-08T20:12:28.598Z,12
2024-03-08T20:17:28.614Z,12
2024-03-08T20:22:28.671Z,12
2024-03-08T20:27:28.853Z,12
2024-03-08T20:32:38.955Z,13
2024-03-08T20:38:28.593Z,12
2024-03-08T20:43:28.703Z,12
2024-03-08T20:48:38.916Z,12
2024-03-08T20:53:38.918Z,12
2024-03-08T20:58:38.986Z,12
2024-03-08T21:03:39.177Z,12
2024-03-08T21:09:28.626Z,12
2024-03-08T21:14:38.931Z,11
2024-03-08T21:19:39.296Z,11
2024-03-08T21:25:28.852Z,11
2024-03-08T21:30:31.092Z,11
2024-03-08T21:35:39.117Z,11
2024-03-08T21:41:28.711Z,10
2024-03-08T21:46:39.139Z,10
2024-03-08T21:52:28.872Z,11
2024-03-08T21:57:39.114Z,10
2024-03-08T22:03:28.865Z,10
2024-03-08T22:08:39.105Z,10
2024-03-08T22:14:28.840Z,10
2024-03-08T22:19:39.108Z,10
2024-03-08T22:24:39.123Z,10
2024-03-08T22:30:29.100Z,10
2024-03-08T22:35:38.862Z,11
2024-03-08T22:40:39.165Z,10
2024-03-08T22:45:39.122Z,10
2024-03-08T22:51:28.800Z,10
2024-03-08T22:56:28.848Z,9
2024-03-08T23:01:39.052Z,10
2024-03-08T23:07:28.843Z,10
2024-03-08T23:12:38.878Z,10
2024-03-08T23:17:39.171Z,10
2024-03-08T23:23:28.814Z,10
2024-03-08T23:28:39.133Z,10
2024-03-08T23:33:39.164Z,10
2024-03-08T23:39:28.807Z,10
2024-03-08T23:44:41.548Z,10
2024-03-08T23:49:39.105Z,10
2024-03-08T23:54:39.106Z,10
